createdAt,value
2022-11-13T00:00:12.297Z,11.87
2022-11-13T00:10:14.904Z,10.83
2022-11-13T00:20:18.868Z,10.67
2022-11-13T00:30:21.314Z,10.00
2022-11-13T00:40:23.734Z,9.13
2022-11-13T00:50:26.410Z,9.70
2022-11-13T01:00:28.781Z,9.20
2022-11-13T01:10:31.721Z,8.07
2022-11-13T01:20:34.604Z,8.17
2022-11-13T01:30:39.772Z,8.40
2022-11-13T01:40:48.599Z,8.07
2022-11-13T01:50:50.805Z,9.53
2022-11-13T02:00:53.047Z,10.03
2022-11-13T02:10:55.341Z,10.10
2022-11-13T02:21:03.719Z,11.13
2022-11-13T02:31:08.908Z,10.63
2022-11-13T02:41:11.219Z,9.50
2022-11-13T02:51:14.565Z,9.20
2022-11-13T03:01:17.027Z,10.90
2022-11-13T03:11:19.346Z,10.00
2022-11-13T03:21:21.713Z,10.07
2022-11-13T03:31:24.133Z,10.37
2022-11-13T03:41:26.365Z,9.50
2022-11-13T03:51:28.609Z,8.33
2022-11-13T04:01:31.069Z,10.00
2022-11-13T04:11:33.766Z,10.97
2022-11-13T04:21:36.075Z,10.43
2022-11-13T04:31:38.455Z,9.10
2022-11-13T04:41:59.221Z,10.20
2022-11-13T04:52:01.539Z,9.10
2022-11-13T05:02:04.410Z,9.10
2022-11-13T05:12:08.349Z,10.27
2022-11-13T05:22:10.619Z,9.43
2022-11-13T05:32:13.048Z,9.03
2022-11-13T05:42:15.276Z,8.23
2022-11-13T05:52:17.538Z,8.77
2022-11-13T06:02:19.735Z,7.77
2022-11-13T06:12:21.979Z,7.90
2022-11-13T06:22:24.177Z,7.90
2022-11-13T06:32:26.497Z,7.57
2022-11-13T06:42:28.796Z,6.70
2022-11-13T06:52:31.095Z,6.33
2022-11-13T07:02:33.298Z,6.30
2022-11-13T07:12:35.666Z,7.03
2022-11-13T07:22:37.874Z,6.17
2022-11-13T07:32:40.280Z,5.90
2022-11-13T07:42:42.629Z,6.40
2022-11-13T07:52:45.515Z,5.87
2022-11-13T08:02:48.236Z,5.37
2022-11-13T08:13:02.546Z,5.90
2022-11-13T08:23:06.217Z,5.70
2022-11-13T08:33:08.563Z,6.20
2022-11-13T08:43:11.069Z,4.90
2022-11-13T08:53:13.654Z,5.47
2022-11-13T09:03:16.395Z,4.93
2022-11-13T09:13:18.707Z,6.37
2022-11-13T09:23:21.277Z,5.50
2022-11-13T09:33:23.550Z,5.73
2022-11-13T09:43:28.598Z,5.83
2022-11-13T10:04:00.747Z,5.03
2022-11-13T10:14:17.225Z,5.17
2022-11-13T10:24:27.805Z,4.93
2022-11-13T10:34:33.539Z,5.27
2022-11-13T10:44:36.106Z,4.47
2022-11-13T10:54:38.731Z,4.90
2022-11-13T11:04:41.549Z,3.60
2022-11-13T11:15:02.178Z,4.57
2022-11-13T11:25:18.637Z,4.40
2022-11-13T11:35:39.567Z,4.10
2022-11-13T11:45:47.321Z,3.77
2022-11-13T11:56:10.748Z,3.10
2022-11-13T12:06:33.580Z,3.77
2022-11-13T12:16:54.844Z,2.97
2022-11-13T12:27:22.941Z,2.80
2022-11-13T12:38:07.477Z,2.53
2022-11-13T12:48:22.904Z,2.53
2022-11-13T12:58:33.144Z,2.87
2022-11-13T13:08:50.892Z,3.30
2022-11-13T13:18:53.683Z,3.90
2022-11-13T13:29:01.629Z,4.10
2022-11-13T13:39:23.036Z,3.47
2022-11-13T13:49:27.869Z,4.07
2022-11-13T14:09:37.453Z,3.47
2022-11-13T14:19:40.026Z,4.07
2022-11-13T14:29:51.744Z,3.67
2022-11-13T14:39:56.232Z,3.47
2022-11-13T14:50:28.776Z,3.05
2022-11-13T15:00:40.483Z,3.13
2022-11-13T15:10:44.189Z,2.93
2022-11-13T15:20:47.119Z,3.50
2022-11-13T15:30:50.078Z,3.40
2022-11-13T15:40:54.397Z,3.13
2022-11-13T15:50:57.960Z,3.53
2022-11-13T16:01:00.908Z,3.93
2022-11-13T16:11:03.952Z,3.40
2022-11-13T16:21:07.308Z,3.87
2022-11-13T16:31:09.922Z,4.00
2022-11-13T16:41:14.389Z,4.80
2022-11-13T16:51:17.104Z,4.23
2022-11-13T17:01:22.748Z,4.17
2022-11-13T17:11:27.864Z,4.20
2022-11-13T17:21:30.780Z,4.60
2022-11-13T17:31:33.396Z,5.03
2022-11-13T17:41:37.848Z,4.60
2022-11-13T17:51:40.427Z,4.60
2022-11-13T18:01:42.993Z,5.07
2022-11-13T18:11:45.608Z,4.83
2022-11-13T18:21:47.996Z,4.97
2022-11-13T18:31:50.398Z,4.87
2022-11-13T18:41:53.950Z,4.93
2022-11-13T18:51:56.402Z,6.00
2022-11-13T19:01:58.795Z,5.43
2022-11-13T19:12:01.179Z,5.30
2022-11-13T19:22:03.685Z,5.80
2022-11-13T19:32:06.070Z,5.23
2022-11-13T19:42:08.607Z,5.67
2022-11-13T19:52:10.972Z,5.40
2022-11-13T20:02:14.694Z,6.20
2022-11-13T20:12:17.332Z,5.47
2022-11-13T20:22:20.153Z,5.40
2022-11-13T20:32:22.595Z,6.10
2022-11-13T20:42:26.110Z,6.47
2022-11-13T20:52:29.054Z,6.63
2022-11-13T21:02:31.427Z,5.83
2022-11-13T21:12:33.820Z,6.10
2022-11-13T21:22:36.386Z,5.80
2022-11-13T21:32:39.413Z,6.33
2022-11-13T21:42:41.857Z,6.07
2022-11-13T21:52:44.300Z,5.87
2022-11-13T22:02:46.784Z,5.30
2022-11-13T22:12:49.178Z,5.67
2022-11-13T22:22:51.596Z,6.03
2022-11-13T22:32:54.084Z,6.23
2022-11-13T22:42:56.503Z,6.17
2022-11-13T22:52:58.921Z,4.90
2022-11-13T23:03:01.284Z,5.53
2022-11-13T23:13:03.745Z,5.37
2022-11-13T23:23:06.328Z,5.20
2022-11-13T23:33:08.914Z,5.13
2022-11-13T23:43:11.658Z,4.97
2022-11-13T23:53:14.781Z,5.67
